sensor_id;sensor_type;location;lat;lon;timestamp;temperature;humidity
4461;DHT22;2243;48.812;9.232;2024-02-23T00:02:31;7.10;99.90
4461;DHT22;2243;48.812;9.232;2024-02-23T00:05:03;7.20;99.90
4461;DHT22;2243;48.812;9.232;2024-02-23T00:07:34;7.30;99.90
4461;DHT22;2243;48.812;9.232;2024-02-23T00:10:06;7.30;99.90
4461;DHT22;2243;48.812;9.232;2024-02-23T00:12:37;7.40;99.90
4461;DHT22;2243;48.812;9.232;2024-02-23T00:15:08;7.40;99.90
4461;DHT22;2243;48.812;9.232;2024-02-23T00:17:39;7.40;99.90
4461;DHT22;2243;48.812;9.232;2024-02-23T00:20:10;7.40;99.90
4461;DHT22;2243;48.812;9.232;2024-02-23T00:22:42;7.40;99.90
4461;DHT22;2243;48.812;9.232;2024-02-23T00:25:13;7.40;99.90
4461;DHT22;2243;48.812;9.232;2024-02-23T00:27:44;7.40;99.90
4461;DHT22;2243;48.812;9.232;2024-02-23T00:30:17;7.30;99.90
4461;DHT22;2243;48.812;9.232;2024-02-23T00:32:48;7.20;99.90
4461;DHT22;2243;48.812;9.232;2024-02-23T00:35:19;7.30;99.90
4461;DHT22;2243;48.812;9.232;2024-02-23T00:37:50;7.30;99.90
4461;DHT22;2243;48.812;9.232;2024-02-23T00:40:21;7.30;99.90
4461;DHT22;2243;48.812;9.232;2024-02-23T00:42:54;7.30;99.90
4461;DHT22;2243;48.812;9.232;2024-02-23T00:45:25;7.30;99.90
4461;DHT22;2243;48.812;9.232;2024-02-23T00:47:55;7.30;99.90
4461;DHT22;2243;48.812;9.232;2024-02-23T00:50:27;7.40;99.90
4461;DHT22;2243;48.812;9.232;2024-02-23T00:52:59;7.40;99.90
4461;DHT22;2243;48.812;9.232;2024-02-23T00:55:30;7.40;99.90
4461;DHT22;2243;48.812;9.232;2024-02-23T00:58:01;7.40;99.90
4461;DHT22;2243;48.812;9.232;2024-02-23T01:00:32;7.40;99.90
4461;DHT22;2243;48.812;9.232;2024-02-23T01:03:04;7.50;99.90
4461;DHT22;2243;48.812;9.232;2024-02-23T01:05:35;7.50;99.90
4461;DHT22;2243;48.812;9.232;2024-02-23T01:08:08;7.40;99.90
4461;DHT22;2243;48.812;9.232;2024-02-23T01:10:39;7.40;99.90
4461;DHT22;2243;48.812;9.232;2024-02-23T01:13:10;7.40;99.90
4461;DHT22;2243;48.812;9.232;2024-02-23T01:15:42;7.50;99.90
4461;DHT22;2243;48.812;9.232;2024-02-23T01:18:13;7.50;99.90
4461;DHT22;2243;48.812;9.232;2024-02-23T01:20:44;7.50;99.90
4461;DHT22;2243;48.812;9.232;2024-02-23T01:23:15;7.50;99.90
4461;DHT22;2243;48.812;9.232;2024-02-23T01:25:46;7.50;99.90
4461;DHT22;2243;48.812;9.232;2024-02-23T01:28:17;7.50;99.90
4461;DHT22;2243;48.812;9.232;2024-02-23T01:30:48;7.60;99.90
4461;DHT22;2243;48.812;9.232;2024-02-23T01:33:19;7.60;99.90
4461;DHT22;2243;48.812;9.232;2024-02-23T01:35:50;7.60;99.90
4461;DHT22;2243;48.812;9.232;2024-02-23T01:38:21;7.60;99.90
4461;DHT22;2243;48.812;9.232;2024-02-23T01:40:53;7.60;99.90
4461;DHT22;2243;48.812;9.232;2024-02-23T01:43:24;7.60;99.90
4461;DHT22;2243;48.812;9.232;2024-02-23T01:45:55;7.60;99.90
4461;DHT22;2243;48.812;9.232;2024-02-23T01:48:26;7.60;99.90
4461;DHT22;2243;48.812;9.232;2024-02-23T01:50:58;7.60;99.90
4461;DHT22;2243;48.812;9.232;2024-02-23T01:53:29;7.60;99.90
4461;DHT22;2243;48.812;9.232;2024-02-23T01:56:01;7.60;99.90
4461;DHT22;2243;48.812;9.232;2024-02-23T01:58:34;7.60;99.90
4461;DHT22;2243;48.812;9.232;2024-02-23T02:01:06;7.60;99.90
4461;DHT22;2243;48.812;9.232;2024-02-23T02:03:38;7.60;99.90
4461;DHT22;2243;48.812;9.232;2024-02-23T02:06:10;7.60;99.90
4461;DHT22;2243;48.812;9.232;2024-02-23T02:08:42;7.50;99.90
4461;DHT22;2243;48.812;9.232;2024-02-23T02:11:13;7.60;99.90
4461;DHT22;2243;48.812;9.232;2024-02-23T02:13:44;7.70;99.90
4461;DHT22;2243;48.812;9.232;2024-02-23T02:16:15;7.60;99.90
4461;DHT22;2243;48.812;9.232;2024-02-23T02:18:46;7.60;99.90
4461;DHT22;2243;48.812;9.232;2024-02-23T02:21:17;7.60;99.90
4461;DHT22;2243;48.812;9.232;2024-02-23T02:23:48;7.60;99.90
4461;DHT22;2243;48.812;9.232;2024-02-23T02:26:19;7.60;99.90
4461;DHT22;2243;48.812;9.232;2024-02-23T02:28:50;7.60;99.90
4461;DHT22;2243;48.812;9.232;2024-02-23T02:31:21;7.70;99.90
4461;DHT22;2243;48.812;9.232;2024-02-23T02:33:52;7.70;99.90
4461;DHT22;2243;48.812;9.232;2024-02-23T02:36:23;7.60;99.90
4461;DHT22;2243;48.812;9.232;2024-02-23T02:38:54;7.60;99.90
4461;DHT22;2243;48.812;9.232;2024-02-23T02:41:28;7.60;99.90
4461;DHT22;2243;48.812;9.232;2024-02-23T02:44:00;7.70;99.90
4461;DHT22;2243;48.812;9.232;2024-02-23T02:46:31;7.70;99.90
4461;DHT22;2243;48.812;9.232;2024-02-23T02:49:02;7.70;99.90
4461;DHT22;2243;48.812;9.232;2024-02-23T02:51:34;7.70;99.90
4461;DHT22;2243;48.812;9.232;2024-02-23T02:54:05;7.60;99.90
4461;DHT22;2243;48.812;9.232;2024-02-23T02:56:42;7.70;99.90
4461;DHT22;2243;48.812;9.232;2024-02-23T02:59:14;7.50;99.90
4461;DHT22;2243;48.812;9.232;2024-02-23T03:01:45;7.70;99.90
4461;DHT22;2243;48.812;9.232;2024-02-23T03:04:17;7.70;99.90
4461;DHT22;2243;48.812;9.232;2024-02-23T03:06:48;7.70;99.90
4461;DHT22;2243;48.812;9.232;2024-02-23T03:09:19;7.70;99.90
4461;DHT22;2243;48.812;9.232;2024-02-23T03:11:50;7.70;99.90
4461;DHT22;2243;48.812;9.232;2024-02-23T03:14:21;7.70;99.90
4461;DHT22;2243;48.812;9.232;2024-02-23T03:16:52;7.50;99.90
4461;DHT22;2243;48.812;9.232;2024-02-23T03:19:23;7.60;99.90
4461;DHT22;2243;48.812;9.232;2024-02-23T03:21:54;7.40;99.90
4461;DHT22;2243;48.812;9.232;2024-02-23T03:24:25;7.40;99.90
4461;DHT22;2243;48.812;9.232;2024-02-23T03:26:56;7.40;99.90
4461;DHT22;2243;48.812;9.232;2024-02-23T03:29:28;7.40;99.90
4461;DHT22;2243;48.812;9.232;2024-02-23T03:32:01;7.40;99.90
4461;DHT22;2243;48.812;9.232;2024-02-23T03:34:32;7.40;99.90
4461;DHT22;2243;48.812;9.232;2024-02-23T03:37:03;7.50;99.90
4461;DHT22;2243;48.812;9.232;2024-02-23T03:39:34;7.40;99.90
4461;DHT22;2243;48.812;9.232;2024-02-23T03:42:07;7.40;99.90
4461;DHT22;2243;48.812;9.232;2024-02-23T03:44:38;7.40;99.90
4461;DHT22;2243;48.812;9.232;2024-02-23T03:47:09;7.40;99.90
4461;DHT22;2243;48.812;9.232;2024-02-23T03:49:40;7.40;99.90
4461;DHT22;2243;48.812;9.232;2024-02-23T03:52:11;7.30;99.90
4461;DHT22;2243;48.812;9.232;2024-02-23T03:54:42;7.30;99.90
4461;DHT22;2243;48.812;9.232;2024-02-23T03:57:13;7.30;99.90
4461;DHT22;2243;48.812;9.232;2024-02-23T03:59:53;7.20;99.90
4461;DHT22;2243;48.812;9.232;2024-02-23T04:02:25;7.30;99.90
4461;DHT22;2243;48.812;9.232;2024-02-23T04:04:56;7.30;99.90
4461;DHT22;2243;48.812;9.232;2024-02-23T04:07:27;7.30;99.90
4461;DHT22;2243;48.812;9.232;2024-02-23T04:09:58;7.20;99.90
4461;DHT22;2243;48.812;9.232;2024-02-23T04:12:29;7.20;99.90
4461;DHT22;2243;48.812;9.232;2024-02-23T04:15:01;7.30;99.90
4461;DHT22;2243;48.812;9.232;2024-02-23T04:17:32;7.30;99.90
4461;DHT22;2243;48.812;9.232;2024-02-23T04:20:07;7.30;99.90
4461;DHT22;2243;48.812;9.232;2024-02-23T04:22:40;7.30;99.90
4461;DHT22;2243;48.812;9.232;2024-02-23T04:25:11;7.20;99.90
4461;DHT22;2243;48.812;9.232;2024-02-23T04:27:43;7.30;99.90
4461;DHT22;2243;48.812;9.232;2024-02-23T04:30:14;7.20;99.90
4461;DHT22;2243;48.812;9.232;2024-02-23T04:32:45;7.20;99.90
4461;DHT22;2243;48.812;9.232;2024-02-23T04:35:16;7.20;99.90
4461;DHT22;2243;48.812;9.232;2024-02-23T04:37:48;7.20;99.90
4461;DHT22;2243;48.812;9.232;2024-02-23T04:40:20;7.20;99.90
4461;DHT22;2243;48.812;9.232;2024-02-23T04:42:51;7.20;99.90
4461;DHT22;2243;48.812;9.232;2024-02-23T04:45:22;7.20;99.90
4461;DHT22;2243;48.812;9.232;2024-02-23T04:47:53;7.20;99.90
4461;DHT22;2243;48.812;9.232;2024-02-23T04:50:24;7.20;99.90
4461;DHT22;2243;48.812;9.232;2024-02-23T04:52:55;7.20;99.90
4461;DHT22;2243;48.812;9.232;2024-02-23T04:55:26;7.10;99.90
4461;DHT22;2243;48.812;9.232;2024-02-23T04:57:57;7.00;99.90
4461;DHT22;2243;48.812;9.232;2024-02-23T05:00:28;7.00;99.90
4461;DHT22;2243;48.812;9.232;2024-02-23T05:03:03;7.00;99.90
4461;DHT22;2243;48.812;9.232;2024-02-23T05:05:35;7.00;99.90
4461;DHT22;2243;48.812;9.232;2024-02-23T05:08:06;7.10;99.90
4461;DHT22;2243;48.812;9.232;2024-02-23T05:10:37;7.10;99.90
4461;DHT22;2243;48.812;9.232;2024-02-23T05:13:08;7.10;99.90
4461;DHT22;2243;48.812;9.232;2024-02-23T05:15:39;7.10;99.90
4461;DHT22;2243;48.812;9.232;2024-02-23T05:18:10;7.10;99.90
4461;DHT22;2243;48.812;9.232;2024-02-23T05:20:41;7.20;99.90
4461;DHT22;2243;48.812;9.232;2024-02-23T05:23:12;7.10;99.90
4461;DHT22;2243;48.812;9.232;2024-02-23T05:25:46;7.00;99.90
4461;DHT22;2243;48.812;9.232;2024-02-23T05:28:17;6.90;99.90
4461;DHT22;2243;48.812;9.232;2024-02-23T05:30:48;7.00;99.90
4461;DHT22;2243;48.812;9.232;2024-02-23T05:33:19;7.00;99.90
4461;DHT22;2243;48.812;9.232;2024-02-23T05:35:51;6.80;99.90
4461;DHT22;2243;48.812;9.232;2024-02-23T05:38:22;6.80;99.90
4461;DHT22;2243;48.812;9.232;2024-02-23T05:40:53;6.80;99.90
4461;DHT22;2243;48.812;9.232;2024-02-23T05:43:24;6.80;99.90
4461;DHT22;2243;48.812;9.232;2024-02-23T05:45:55;6.80;99.90
4461;DHT22;2243;48.812;9.232;2024-02-23T05:48:29;6.70;99.90
4461;DHT22;2243;48.812;9.232;2024-02-23T05:51:00;7.60;99.90
4461;DHT22;2243;48.812;9.232;2024-02-23T05:53:31;8.30;99.90
4461;DHT22;2243;48.812;9.232;2024-02-23T05:56:04;8.60;99.90
4461;DHT22;2243;48.812;9.232;2024-02-23T05:58:35;8.50;99.90
4461;DHT22;2243;48.812;9.232;2024-02-23T06:01:06;8.30;99.90
4461;DHT22;2243;48.812;9.232;2024-02-23T06:03:37;8.50;99.90
4461;DHT22;2243;48.812;9.232;2024-02-23T06:06:08;8.50;99.90
4461;DHT22;2243;48.812;9.232;2024-02-23T06:08:40;8.30;99.90
4461;DHT22;2243;48.812;9.232;2024-02-23T06:11:11;7.90;99.90
4461;DHT22;2243;48.812;9.232;2024-02-23T06:13:42;7.50;99.90
4461;DHT22;2243;48.812;9.232;2024-02-23T06:16:13;7.30;99.90
4461;DHT22;2243;48.812;9.232;2024-02-23T06:18:44;7.20;99.90
4461;DHT22;2243;48.812;9.232;2024-02-23T06:21:15;7.20;99.90
4461;DHT22;2243;48.812;9.232;2024-02-23T06:23:48;7.00;99.90
4461;DHT22;2243;48.812;9.232;2024-02-23T06:26:19;6.80;99.90
4461;DHT22;2243;48.812;9.232;2024-02-23T06:28:50;6.60;99.90
4461;DHT22;2243;48.812;9.232;2024-02-23T06:31:21;6.40;99.90
4461;DHT22;2243;48.812;9.232;2024-02-23T06:33:52;6.40;99.90
4461;DHT22;2243;48.812;9.232;2024-02-23T06:36:23;6.50;99.90
4461;DHT22;2243;48.812;9.232;2024-02-23T06:38:54;6.50;99.90
4461;DHT22;2243;48.812;9.232;2024-02-23T06:41:25;6.60;99.90
4461;DHT22;2243;48.812;9.232;2024-02-23T06:43:57;6.70;99.90
4461;DHT22;2243;48.812;9.232;2024-02-23T06:46:28;6.50;99.90
4461;DHT22;2243;48.812;9.232;2024-02-23T06:48:58;6.40;99.90
4461;DHT22;2243;48.812;9.232;2024-02-23T06:51:31;6.40;99.90
4461;DHT22;2243;48.812;9.232;2024-02-23T06:54:02;6.40;99.90
4461;DHT22;2243;48.812;9.232;2024-02-23T06:56:34;6.30;99.90
4461;DHT22;2243;48.812;9.232;2024-02-23T06:59:05;6.30;99.90
4461;DHT22;2243;48.812;9.232;2024-02-23T07:01:36;6.30;99.90
4461;DHT22;2243;48.812;9.232;2024-02-23T07:04:10;6.40;99.90
4461;DHT22;2243;48.812;9.232;2024-02-23T07:06:41;6.30;99.90
4461;DHT22;2243;48.812;9.232;2024-02-23T07:09:12;6.30;99.90
4461;DHT22;2243;48.812;9.232;2024-02-23T07:11:43;6.40;99.90
4461;DHT22;2243;48.812;9.232;2024-02-23T07:14:16;6.50;99.90
4461;DHT22;2243;48.812;9.232;2024-02-23T07:16:48;6.50;99.90
4461;DHT22;2243;48.812;9.232;2024-02-23T07:19:19;6.40;99.90
4461;DHT22;2243;48.812;9.232;2024-02-23T07:21:50;6.40;99.90
4461;DHT22;2243;48.812;9.232;2024-02-23T07:24:21;6.40;99.90
4461;DHT22;2243;48.812;9.232;2024-02-23T07:26:52;6.40;99.90
4461;DHT22;2243;48.812;9.232;2024-02-23T07:29:23;6.60;99.90
4461;DHT22;2243;48.812;9.232;2024-02-23T07:31:54;6.70;99.90
4461;DHT22;2243;48.812;9.232;2024-02-23T07:34:26;6.90;99.90
4461;DHT22;2243;48.812;9.232;2024-02-23T07:36:57;6.90;99.90
4461;DHT22;2243;48.812;9.232;2024-02-23T07:39:28;6.90;99.90
4461;DHT22;2243;48.812;9.232;2024-02-23T07:41:59;6.80;99.90
4461;DHT22;2243;48.812;9.232;2024-02-23T07:44:30;6.80;99.90
4461;DHT22;2243;48.812;9.232;2024-02-23T07:47:01;6.90;99.90
4461;DHT22;2243;48.812;9.232;2024-02-23T07:49:33;6.90;99.90
4461;DHT22;2243;48.812;9.232;2024-02-23T07:52:04;7.00;99.90
4461;DHT22;2243;48.812;9.232;2024-02-23T07:54:36;6.90;99.90
4461;DHT22;2243;48.812;9.232;2024-02-23T07:57:07;7.00;99.90
4461;DHT22;2243;48.812;9.232;2024-02-23T07:59:38;7.00;99.90
4461;DHT22;2243;48.812;9.232;2024-02-23T08:02:09;7.00;99.90
4461;DHT22;2243;48.812;9.232;2024-02-23T08:04:40;6.90;99.90
4461;DHT22;2243;48.812;9.232;2024-02-23T08:07:11;6.90;99.90
4461;DHT22;2243;48.812;9.232;2024-02-23T08:09:42;7.00;99.90
4461;DHT22;2243;48.812;9.232;2024-02-23T08:12:13;6.90;99.90
4461;DHT22;2243;48.812;9.232;2024-02-23T08:14:45;7.00;99.90
4461;DHT22;2243;48.812;9.232;2024-02-23T08:17:17;7.00;99.90
4461;DHT22;2243;48.812;9.232;2024-02-23T08:19:48;7.10;99.90
4461;DHT22;2243;48.812;9.232;2024-02-23T08:22:19;6.90;99.90
4461;DHT22;2243;48.812;9.232;2024-02-23T08:24:49;7.00;99.90
4461;DHT22;2243;48.812;9.232;2024-02-23T08:27:20;7.00;99.90
4461;DHT22;2243;48.812;9.232;2024-02-23T08:29:51;7.10;99.90
4461;DHT22;2243;48.812;9.232;2024-02-23T08:32:22;6.90;99.90
4461;DHT22;2243;48.812;9.232;2024-02-23T08:34:53;6.80;99.90
4461;DHT22;2243;48.812;9.232;2024-02-23T08:37:30;7.00;99.90
4461;DHT22;2243;48.812;9.232;2024-02-23T08:40:01;7.00;99.90
4461;DHT22;2243;48.812;9.232;2024-02-23T08:42:32;7.10;99.90
4461;DHT22;2243;48.812;9.232;2024-02-23T08:45:03;7.10;99.90
4461;DHT22;2243;48.812;9.232;2024-02-23T08:47:35;7.10;99.90
4461;DHT22;2243;48.812;9.232;2024-02-23T08:50:07;7.00;99.90
4461;DHT22;2243;48.812;9.232;2024-02-23T08:52:38;7.00;99.90
4461;DHT22;2243;48.812;9.232;2024-02-23T08:55:09;7.00;99.90
4461;DHT22;2243;48.812;9.232;2024-02-23T08:57:40;7.00;99.90
4461;DHT22;2243;48.812;9.232;2024-02-23T09:00:11;7.00;99.90
4461;DHT22;2243;48.812;9.232;2024-02-23T09:02:47;7.00;99.90
4461;DHT22;2243;48.812;9.232;2024-02-23T09:05:20;6.90;99.90
4461;DHT22;2243;48.812;9.232;2024-02-23T09:07:52;6.90;99.90
4461;DHT22;2243;48.812;9.232;2024-02-23T09:10:24;7.00;99.90
4461;DHT22;2243;48.812;9.232;2024-02-23T09:12:55;7.10;99.90
4461;DHT22;2243;48.812;9.232;2024-02-23T09:15:26;7.10;99.90
4461;DHT22;2243;48.812;9.232;2024-02-23T09:17:57;7.20;99.90
4461;DHT22;2243;48.812;9.232;2024-02-23T09:20:27;7.30;99.90
4461;DHT22;2243;48.812;9.232;2024-02-23T09:23:01;7.10;99.90
4461;DHT22;2243;48.812;9.232;2024-02-23T09:25:33;7.10;99.90
4461;DHT22;2243;48.812;9.232;2024-02-23T09:28:04;7.20;99.90
4461;DHT22;2243;48.812;9.232;2024-02-23T09:30:35;7.20;99.90
4461;DHT22;2243;48.812;9.232;2024-02-23T09:33:06;7.20;99.90
4461;DHT22;2243;48.812;9.232;2024-02-23T09:35:38;7.20;99.90
4461;DHT22;2243;48.812;9.232;2024-02-23T09:38:10;7.20;99.90
4461;DHT22;2243;48.812;9.232;2024-02-23T09:40:41;7.20;99.90
4461;DHT22;2243;48.812;9.232;2024-02-23T09:43:12;7.30;99.90
4461;DHT22;2243;48.812;9.232;2024-02-23T09:45:45;7.30;99.90
4461;DHT22;2243;48.812;9.232;2024-02-23T09:48:18;7.30;99.90
4461;DHT22;2243;48.812;9.232;2024-02-23T09:50:52;7.40;99.90
4461;DHT22;2243;48.812;9.232;2024-02-23T09:53:23;7.40;99.90
4461;DHT22;2243;48.812;9.232;2024-02-23T09:55:54;7.40;99.90
4461;DHT22;2243;48.812;9.232;2024-02-23T09:58:27;7.60;99.90
4461;DHT22;2243;48.812;9.232;2024-02-23T10:01:02;7.60;99.90
4461;DHT22;2243;48.812;9.232;2024-02-23T10:03:33;7.70;99.90
4461;DHT22;2243;48.812;9.232;2024-02-23T10:06:05;7.60;99.90
4461;DHT22;2243;48.812;9.232;2024-02-23T10:08:36;7.70;99.90
4461;DHT22;2243;48.812;9.232;2024-02-23T10:11:08;7.80;99.90
4461;DHT22;2243;48.812;9.232;2024-02-23T10:13:41;7.80;99.90
4461;DHT22;2243;48.812;9.232;2024-02-23T10:16:12;7.90;99.90
4461;DHT22;2243;48.812;9.232;2024-02-23T10:18:49;7.90;99.90
4461;DHT22;2243;48.812;9.232;2024-02-23T10:21:20;7.90;99.90
4461;DHT22;2243;48.812;9.232;2024-02-23T10:23:51;7.90;99.90
4461;DHT22;2243;48.812;9.232;2024-02-23T10:26:22;7.80;99.90
4461;DHT22;2243;48.812;9.232;2024-02-23T10:28:54;7.80;99.90
4461;DHT22;2243;48.812;9.232;2024-02-23T10:31:27;7.90;99.90
4461;DHT22;2243;48.812;9.232;2024-02-23T10:33:58;8.00;99.90
4461;DHT22;2243;48.812;9.232;2024-02-23T10:36:30;8.00;99.90
4461;DHT22;2243;48.812;9.232;2024-02-23T10:39:02;8.00;99.90
4461;DHT22;2243;48.812;9.232;2024-02-23T10:41:36;8.00;99.90
4461;DHT22;2243;48.812;9.232;2024-02-23T10:44:11;7.90;99.90
4461;DHT22;2243;48.812;9.232;2024-02-23T10:46:42;8.00;99.90
4461;DHT22;2243;48.812;9.232;2024-02-23T10:49:15;8.00;99.90
4461;DHT22;2243;48.812;9.232;2024-02-23T10:51:47;8.00;99.90
4461;DHT22;2243;48.812;9.232;2024-02-23T10:54:20;8.00;99.90
4461;DHT22;2243;48.812;9.232;2024-02-23T10:56:52;8.20;99.90
4461;DHT22;2243;48.812;9.232;2024-02-23T10:59:27;8.30;99.90
4461;DHT22;2243;48.812;9.232;2024-02-23T11:01:59;8.10;99.90
4461;DHT22;2243;48.812;9.232;2024-02-23T11:04:31;8.40;99.90
4461;DHT22;2243;48.812;9.232;2024-02-23T11:07:13;8.30;99.90
4461;DHT22;2243;48.812;9.232;2024-02-23T11:09:52;8.50;99.90
4461;DHT22;2243;48.812;9.232;2024-02-23T11:12:25;8.50;99.90
4461;DHT22;2243;48.812;9.232;2024-02-23T11:15:01;8.70;99.90
4461;DHT22;2243;48.812;9.232;2024-02-23T11:17:35;8.70;99.90
4461;DHT22;2243;48.812;9.232;2024-02-23T11:20:08;8.90;99.90
4461;DHT22;2243;48.812;9.232;2024-02-23T11:22:40;8.90;99.90
4461;DHT22;2243;48.812;9.232;2024-02-23T11:25:11;8.90;99.90
4461;DHT22;2243;48.812;9.232;2024-02-23T11:27:42;8.90;99.90
4461;DHT22;2243;48.812;9.232;2024-02-23T11:30:17;8.80;99.90
4461;DHT22;2243;48.812;9.232;2024-02-23T11:32:48;8.80;99.90
4461;DHT22;2243;48.812;9.232;2024-02-23T11:35:25;8.80;99.90
4461;DHT22;2243;48.812;9.232;2024-02-23T11:37:57;8.80;99.90
4461;DHT22;2243;48.812;9.232;2024-02-23T11:40:31;8.90;99.90
4461;DHT22;2243;48.812;9.232;2024-02-23T11:43:03;8.90;99.90
4461;DHT22;2243;48.812;9.232;2024-02-23T11:45:34;8.90;99.90
4461;DHT22;2243;48.812;9.232;2024-02-23T11:48:06;8.90;99.90
4461;DHT22;2243;48.812;9.232;2024-02-23T11:50:38;8.80;99.90
4461;DHT22;2243;48.812;9.232;2024-02-23T11:53:09;8.80;99.90
4461;DHT22;2243;48.812;9.232;2024-02-23T11:55:40;8.80;99.90
4461;DHT22;2243;48.812;9.232;2024-02-23T11:58:11;8.90;99.90
4461;DHT22;2243;48.812;9.232;2024-02-23T12:00:51;9.00;99.90
4461;DHT22;2243;48.812;9.232;2024-02-23T12:03:22;9.00;99.90
4461;DHT22;2243;48.812;9.232;2024-02-23T12:05:59;9.00;99.90
4461;DHT22;2243;48.812;9.232;2024-02-23T12:08:31;9.00;99.90
4461;DHT22;2243;48.812;9.232;2024-02-23T12:11:09;8.90;99.90
4461;DHT22;2243;48.812;9.232;2024-02-23T12:13:40;8.80;99.90
4461;DHT22;2243;48.812;9.232;2024-02-23T12:16:11;8.80;99.90
4461;DHT22;2243;48.812;9.232;2024-02-23T12:18:43;8.90;99.90
4461;DHT22;2243;48.812;9.232;2024-02-23T12:21:14;9.00;99.90
4461;DHT22;2243;48.812;9.232;2024-02-23T12:23:45;9.00;99.90
4461;DHT22;2243;48.812;9.232;2024-02-23T12:26:19;9.10;99.90
4461;DHT22;2243;48.812;9.232;2024-02-23T12:28:50;9.00;99.90
4461;DHT22;2243;48.812;9.232;2024-02-23T12:31:24;9.10;99.90
4461;DHT22;2243;48.812;9.232;2024-02-23T12:33:58;9.10;99.90
4461;DHT22;2243;48.812;9.232;2024-02-23T12:36:29;9.00;99.90
4461;DHT22;2243;48.812;9.232;2024-02-23T12:39:05;9.10;99.90
4461;DHT22;2243;48.812;9.232;2024-02-23T12:41:36;9.30;99.90
4461;DHT22;2243;48.812;9.232;2024-02-23T12:44:07;9.30;99.90
4461;DHT22;2243;48.812;9.232;2024-02-23T12:46:40;9.20;99.90
4461;DHT22;2243;48.812;9.232;2024-02-23T12:49:11;9.30;99.90
4461;DHT22;2243;48.812;9.232;2024-02-23T12:51:42;9.40;99.90
4461;DHT22;2243;48.812;9.232;2024-02-23T12:54:13;9.30;99.80
4461;DHT22;2243;48.812;9.232;2024-02-23T12:56:44;9.10;99.90
4461;DHT22;2243;48.812;9.232;2024-02-23T12:59:15;9.10;99.90
4461;DHT22;2243;48.812;9.232;2024-02-23T13:01:46;9.20;99.90
4461;DHT22;2243;48.812;9.232;2024-02-23T13:04:21;9.30;99.90
4461;DHT22;2243;48.812;9.232;2024-02-23T13:06:52;9.30;99.90
4461;DHT22;2243;48.812;9.232;2024-02-23T13:09:24;9.30;99.90
4461;DHT22;2243;48.812;9.232;2024-02-23T13:11:55;9.30;99.90
4461;DHT22;2243;48.812;9.232;2024-02-23T13:14:26;9.30;99.90
4461;DHT22;2243;48.812;9.232;2024-02-23T13:16:57;9.40;99.90
4461;DHT22;2243;48.812;9.232;2024-02-23T13:19:28;9.20;99.90
4461;DHT22;2243;48.812;9.232;2024-02-23T13:22:00;9.30;99.90
4461;DHT22;2243;48.812;9.232;2024-02-23T13:24:31;9.20;99.90
4461;DHT22;2243;48.812;9.232;2024-02-23T13:27:02;9.30;99.90
4461;DHT22;2243;48.812;9.232;2024-02-23T13:29:33;9.40;99.90
4461;DHT22;2243;48.812;9.232;2024-02-23T13:32:05;9.20;99.90
4461;DHT22;2243;48.812;9.232;2024-02-23T13:34:36;9.40;99.90
4461;DHT22;2243;48.812;9.232;2024-02-23T13:37:07;9.40;99.90
4461;DHT22;2243;48.812;9.232;2024-02-23T13:39:38;9.50;99.90
4461;DHT22;2243;48.812;9.232;2024-02-23T13:42:09;9.30;99.90
4461;DHT22;2243;48.812;9.232;2024-02-23T13:44:40;9.40;99.90
4461;DHT22;2243;48.812;9.232;2024-02-23T13:47:12;9.50;99.90
4461;DHT22;2243;48.812;9.232;2024-02-23T13:49:43;9.50;99.90
4461;DHT22;2243;48.812;9.232;2024-02-23T13:52:14;9.50;99.90
4461;DHT22;2243;48.812;9.232;2024-02-23T13:54:45;9.30;99.90
4461;DHT22;2243;48.812;9.232;2024-02-23T13:57:16;9.30;99.90
4461;DHT22;2243;48.812;9.232;2024-02-23T13:59:47;9.40;99.90
4461;DHT22;2243;48.812;9.232;2024-02-23T14:02:25;9.40;99.90
4461;DHT22;2243;48.812;9.232;2024-02-23T14:05:03;9.30;99.90
4461;DHT22;2243;48.812;9.232;2024-02-23T14:07:37;9.30;99.90
4461;DHT22;2243;48.812;9.232;2024-02-23T14:10:08;9.30;99.90
4461;DHT22;2243;48.812;9.232;2024-02-23T14:12:40;9.30;99.90
4461;DHT22;2243;48.812;9.232;2024-02-23T14:15:12;9.30;99.90
4461;DHT22;2243;48.812;9.232;2024-02-23T14:17:43;9.40;99.90
4461;DHT22;2243;48.812;9.232;2024-02-23T14:20:14;9.50;99.90
4461;DHT22;2243;48.812;9.232;2024-02-23T14:22:45;9.50;99.90
4461;DHT22;2243;48.812;9.232;2024-02-23T14:25:16;9.50;99.90
4461;DHT22;2243;48.812;9.232;2024-02-23T14:27:47;9.60;99.90
4461;DHT22;2243;48.812;9.232;2024-02-23T14:30:18;9.50;99.90
4461;DHT22;2243;48.812;9.232;2024-02-23T14:32:49;9.50;99.90
4461;DHT22;2243;48.812;9.232;2024-02-23T14:35:21;9.90;99.90
4461;DHT22;2243;48.812;9.232;2024-02-23T14:37:52;10.10;99.90
4461;DHT22;2243;48.812;9.232;2024-02-23T14:40:24;10.00;99.90
4461;DHT22;2243;48.812;9.232;2024-02-23T14:42:55;9.90;99.90
4461;DHT22;2243;48.812;9.232;2024-02-23T14:45:25;10.00;99.90
4461;DHT22;2243;48.812;9.232;2024-02-23T14:47:58;9.90;99.90
4461;DHT22;2243;48.812;9.232;2024-02-23T14:50:29;9.90;99.90
4461;DHT22;2243;48.812;9.232;2024-02-23T14:53:01;9.90;99.90
4461;DHT22;2243;48.812;9.232;2024-02-23T14:55:32;10.00;99.90
4461;DHT22;2243;48.812;9.232;2024-02-23T14:58:03;10.10;99.90
4461;DHT22;2243;48.812;9.232;2024-02-23T15:00:34;10.10;99.90
4461;DHT22;2243;48.812;9.232;2024-02-23T15:03:05;10.00;99.90
4461;DHT22;2243;48.812;9.232;2024-02-23T15:05:36;10.00;99.90
4461;DHT22;2243;48.812;9.232;2024-02-23T15:08:07;10.00;99.90
4461;DHT22;2243;48.812;9.232;2024-02-23T15:10:39;9.90;99.90
4461;DHT22;2243;48.812;9.232;2024-02-23T15:13:10;9.90;99.90
4461;DHT22;2243;48.812;9.232;2024-02-23T15:15:40;9.90;99.70
4461;DHT22;2243;48.812;9.232;2024-02-23T15:18:12;9.90;99.70
4461;DHT22;2243;48.812;9.232;2024-02-23T15:20:43;9.80;99.90
4461;DHT22;2243;48.812;9.232;2024-02-23T15:23:14;9.80;99.90
4461;DHT22;2243;48.812;9.232;2024-02-23T15:25:46;9.70;99.90
4461;DHT22;2243;48.812;9.232;2024-02-23T15:28:29;9.70;99.90
4461;DHT22;2243;48.812;9.232;2024-02-23T15:31:00;9.70;99.90
4461;DHT22;2243;48.812;9.232;2024-02-23T15:33:33;9.70;99.90
4461;DHT22;2243;48.812;9.232;2024-02-23T15:36:07;9.70;99.90
4461;DHT22;2243;48.812;9.232;2024-02-23T15:38:39;9.60;99.90
4461;DHT22;2243;48.812;9.232;2024-02-23T15:41:11;9.60;99.90
4461;DHT22;2243;48.812;9.232;2024-02-23T15:43:42;9.60;99.90
4461;DHT22;2243;48.812;9.232;2024-02-23T15:46:13;9.70;99.90
4461;DHT22;2243;48.812;9.232;2024-02-23T15:48:44;9.70;99.90
4461;DHT22;2243;48.812;9.232;2024-02-23T15:51:15;9.70;99.90
4461;DHT22;2243;48.812;9.232;2024-02-23T15:54:06;9.50;99.90
4461;DHT22;2243;48.812;9.232;2024-02-23T15:56:37;9.60;99.90
4461;DHT22;2243;48.812;9.232;2024-02-23T15:59:09;9.50;99.90
4461;DHT22;2243;48.812;9.232;2024-02-23T16:01:41;9.60;99.90
4461;DHT22;2243;48.812;9.232;2024-02-23T16:04:12;9.60;99.90
4461;DHT22;2243;48.812;9.232;2024-02-23T16:06:43;9.70;99.90
4461;DHT22;2243;48.812;9.232;2024-02-23T16:09:14;9.60;99.90
4461;DHT22;2243;48.812;9.232;2024-02-23T16:11:47;9.60;99.90
4461;DHT22;2243;48.812;9.232;2024-02-23T16:14:18;9.50;99.90
4461;DHT22;2243;48.812;9.232;2024-02-23T16:16:49;9.60;99.90
4461;DHT22;2243;48.812;9.232;2024-02-23T16:19:21;9.60;99.90
4461;DHT22;2243;48.812;9.232;2024-02-23T16:21:52;9.60;99.90
4461;DHT22;2243;48.812;9.232;2024-02-23T16:24:23;9.80;99.90
4461;DHT22;2243;48.812;9.232;2024-02-23T16:26:54;9.80;99.90
4461;DHT22;2243;48.812;9.232;2024-02-23T16:29:25;9.80;99.90
4461;DHT22;2243;48.812;9.232;2024-02-23T16:31:56;9.70;99.90
4461;DHT22;2243;48.812;9.232;2024-02-23T16:34:27;9.80;99.90
4461;DHT22;2243;48.812;9.232;2024-02-23T16:36:59;9.70;99.90
4461;DHT22;2243;48.812;9.232;2024-02-23T16:39:30;9.60;99.90
4461;DHT22;2243;48.812;9.232;2024-02-23T16:42:03;9.70;99.90
4461;DHT22;2243;48.812;9.232;2024-02-23T16:44:34;9.70;99.90
4461;DHT22;2243;48.812;9.232;2024-02-23T16:47:06;9.70;99.90